Terminal Aerodrome Forecast
Issued by NWS Rapid City, SD

Home | Current Version | Previous Version | Graphics & Text | Print | Product List | Glossary On
Versions: 1 2 3 4 5 6 7 8 9 10 11 12 13 14
000
FTUS43 KUNR 291120
TAFRAP
TAF
KRAP 291120Z 2912/3012 VRB05KT P6SM SCT120
     FM292000 14010KT P6SM VCSH BKN060
     FM300100 VRB05KT P6SM SCT100=

USA.gov is the U.S. government's official web portal to all federal, state and local government web resources and services.